Portada
METAR-TAF:

METAR-TAF

Aeroports :

La Argelia

Loja, Equador

latitud: 03-59-45S, longitud: 079-22-19W, altitud: 1236 m

Observació

L'informe es va fer fa 1 hora i 3 minuts, a les 12:00 UTC
Vent 1 kt amb direcció variable
Temperatura 18°C
Humitat 94%
Pressió 1018 hPa
Visibilitat 10 km o més
Cel ennuvolat a una alçada de 4000 ft
Núvols disperses a una alçada de 10000 ft

METAR: SECA 301200Z VRB01KT 9999 BKN040 SCT100 18/17 Q1018

Hora: 08:03 (13:03 UTC)


TAF: manca

Observacions i pronòstics meteorològics de més de 4000 aeroports (METAR i TAF).

Les estacions disponibles són els punts grocs i vermells al mapa.

Posi el ratolí al punt desitjat per veure el nom de l'estació.

Feu clic per veure les observacions i els pronòstics meteorològics.

Per canviar el mapa: feu clic els botons verds amb una creu de color negre per apropar; al botó verd amb un guió per allunyar la imatge; o en les fletxes verdes per a mapes adjacents.


METAR-TAF: